createdAt,value
2022-10-30T00:00:59.024Z,55.00
2022-10-30T00:03:38.571Z,56.50
2022-10-30T00:06:06.944Z,53.00
2022-10-30T00:08:35.116Z,50.50
2022-10-30T00:11:06.869Z,54.67
2022-10-30T00:13:35.243Z,55.50
2022-10-30T00:16:05.063Z,51.67
2022-10-30T00:18:34.900Z,59.00
2022-10-30T00:21:06.820Z,60.00
2022-10-30T00:23:35.443Z,57.67
2022-10-30T00:26:04.527Z,58.00
2022-10-30T00:28:32.685Z,60.67
2022-10-30T00:31:05.059Z,60.00
2022-10-30T00:33:32.929Z,60.00
2022-10-30T00:36:00.903Z,62.00
2022-10-30T00:38:28.774Z,53.00
2022-10-30T00:40:56.765Z,61.67
2022-10-30T00:43:36.494Z,52.00
2022-10-30T00:46:16.634Z,57.33
2022-10-30T00:48:46.620Z,53.67
2022-10-30T00:51:15.238Z,55.50
2022-10-30T00:53:44.022Z,55.00
2022-10-30T00:56:13.039Z,62.00
2022-10-30T00:58:43.335Z,56.50
2022-10-30T01:01:15.341Z,56.00
2022-10-30T01:03:43.682Z,52.50
2022-10-30T01:06:15.135Z,58.33
2022-10-30T01:08:43.476Z,51.33
2022-10-30T01:11:11.972Z,56.33
2022-10-30T01:13:41.290Z,56.50
2022-10-30T01:16:25.540Z,56.00
2022-10-30T01:19:08.052Z,52.00
2022-10-30T01:21:39.080Z,57.00
2022-10-30T01:24:28.244Z,53.33
2022-10-30T01:27:01.920Z,55.00
2022-10-30T01:29:29.676Z,50.50
2022-10-30T01:32:03.751Z,56.00
2022-10-30T01:34:43.914Z,63.50
2022-10-30T01:37:22.110Z,58.00
2022-10-30T01:39:50.007Z,56.00
2022-10-30T01:42:37.809Z,58.00
2022-10-30T01:45:06.590Z,54.50
2022-10-30T01:47:54.810Z,59.67
2022-10-30T01:50:36.535Z,60.67
2022-10-30T01:53:04.404Z,59.33
2022-10-30T01:55:37.512Z,47.00
2022-10-30T01:58:05.267Z,56.00
2022-10-30T02:00:33.569Z,54.50
2022-10-30T02:03:01.865Z,66.00
2022-10-30T02:05:36.844Z,56.67
2022-10-30T02:08:05.211Z,60.67
2022-10-30T02:10:37.087Z,51.00
2022-10-30T02:13:05.568Z,46.33
2022-10-30T02:15:34.042Z,49.00
2022-10-30T02:18:02.669Z,54.00
2022-10-30T02:20:31.067Z,51.50
2022-10-30T02:22:59.959Z,55.00
2022-10-30T02:25:32.467Z,54.00
2022-10-30T02:28:00.648Z,52.50
2022-10-30T02:30:30.147Z,56.00
2022-10-30T02:32:58.320Z,50.00
2022-10-30T02:35:26.605Z,58.67
2022-10-30T02:37:54.806Z,58.33
2022-10-30T02:40:22.784Z,56.00
2022-10-30T02:42:53.891Z,52.00
2022-10-30T02:45:22.200Z,54.00
2022-10-30T02:47:50.208Z,59.33
2022-10-30T02:50:18.206Z,57.00
2022-10-30T02:52:46.178Z,58.00
2022-10-30T02:55:14.254Z,56.00
2022-10-30T02:57:42.464Z,57.00
2022-10-30T03:00:11.376Z,56.00
2022-10-30T03:02:39.523Z,55.00
2022-10-30T03:05:07.883Z,61.00
2022-10-30T03:07:35.599Z,60.00
2022-10-30T03:10:03.777Z,61.50
2022-10-30T03:12:32.700Z,55.00
2022-10-30T03:15:00.456Z,54.33
2022-10-30T03:17:28.523Z,53.50
2022-10-30T03:19:56.604Z,52.50
2022-10-30T03:22:24.473Z,55.67
2022-10-30T03:24:52.137Z,58.67
2022-10-30T03:27:20.375Z,58.00
2022-10-30T03:29:48.478Z,52.00
2022-10-30T03:32:16.681Z,57.00
2022-10-30T03:34:55.169Z,59.00
2022-10-30T03:37:23.145Z,54.00
2022-10-30T03:39:51.008Z,54.00
2022-10-30T03:42:21.685Z,56.67
2022-10-30T03:44:50.584Z,53.00
2022-10-30T03:47:18.497Z,55.00
2022-10-30T03:49:47.188Z,51.00
2022-10-30T03:52:18.834Z,56.00
2022-10-30T03:54:49.408Z,54.67
2022-10-30T03:57:17.507Z,54.00
2022-10-30T03:59:57.242Z,42.00
2022-10-30T04:02:46.769Z,47.00
2022-10-30T04:05:19.266Z,54.50
2022-10-30T04:07:48.232Z,53.67
2022-10-30T04:10:20.974Z,52.00
2022-10-30T04:12:53.081Z,50.00
2022-10-30T04:15:20.949Z,51.50
2022-10-30T04:17:51.946Z,50.33
2022-10-30T04:20:20.871Z,56.50
2022-10-30T04:22:49.455Z,54.00
2022-10-30T04:25:20.296Z,58.50
2022-10-30T04:27:49.823Z,58.00
2022-10-30T04:30:21.459Z,55.00
2022-10-30T04:32:50.070Z,57.50
2022-10-30T04:35:19.848Z,59.50
2022-10-30T04:38:01.653Z,49.00
2022-10-30T04:40:31.062Z,48.67
2022-10-30T04:43:03.324Z,57.00
2022-10-30T04:45:31.487Z,54.67
2022-10-30T04:48:06.880Z,50.50
2022-10-30T04:50:35.320Z,50.00
2022-10-30T04:53:18.333Z,57.50
2022-10-30T04:55:48.106Z,45.50
2022-10-30T04:58:16.111Z,52.00
2022-10-30T05:00:45.319Z,52.00
2022-10-30T05:03:21.999Z,54.00
2022-10-30T05:06:01.135Z,46.50
2022-10-30T05:08:29.505Z,53.00
2022-10-30T05:10:57.440Z,51.00
2022-10-30T05:13:25.197Z,52.50
2022-10-30T05:15:54.524Z,56.00
2022-10-30T05:18:24.250Z,57.50
2022-10-30T05:20:52.123Z,55.00
2022-10-30T05:23:19.756Z,55.00
2022-10-30T05:25:47.535Z,43.00
2022-10-30T05:28:16.217Z,45.50
2022-10-30T05:30:52.593Z,38.00
2022-10-30T05:33:52.713Z,49.50
2022-10-30T05:36:20.882Z,71.50
2022-10-30T05:38:48.864Z,58.00
2022-10-30T05:41:24.199Z,60.00
2022-10-30T05:43:52.061Z,44.67
2022-10-30T05:46:20.039Z,40.50
2022-10-30T05:48:47.869Z,52.00
2022-10-30T05:51:15.976Z,49.67
2022-10-30T05:53:50.191Z,58.00
2022-10-30T05:56:20.508Z,48.50
2022-10-30T05:58:49.455Z,54.33
2022-10-30T06:01:17.965Z,53.00
2022-10-30T06:03:47.088Z,45.50
2022-10-30T06:06:15.051Z,37.00
2022-10-30T06:08:44.322Z,41.00
2022-10-30T06:11:38.334Z,43.00
2022-10-30T06:14:07.227Z,42.33
2022-10-30T06:16:53.120Z,49.33
2022-10-30T06:19:33.004Z,55.00
2022-10-30T06:22:20.687Z,50.00
2022-10-30T06:24:58.597Z,45.00
2022-10-30T06:27:45.101Z,42.00
2022-10-30T06:30:13.891Z,38.00
2022-10-30T06:32:42.158Z,51.67
2022-10-30T06:35:10.147Z,45.50
2022-10-30T06:37:41.088Z,44.50
2022-10-30T06:40:11.821Z,53.00
2022-10-30T06:43:05.684Z,40.00
2022-10-30T06:45:44.093Z,33.00
2022-10-30T06:48:13.856Z,44.50
2022-10-30T06:50:45.264Z,46.33
2022-10-30T06:53:13.641Z,53.00
2022-10-30T06:55:42.224Z,50.50
2022-10-30T06:58:39.174Z,48.00
2022-10-30T07:01:12.541Z,45.00
2022-10-30T07:04:03.174Z,44.67
2022-10-30T07:06:31.139Z,33.00
2022-10-30T07:09:00.128Z,47.50
2022-10-30T07:11:28.305Z,41.50
2022-10-30T07:14:22.387Z,36.00
2022-10-30T07:17:19.522Z,31.00
2022-10-30T07:19:52.900Z,43.00
2022-10-30T07:22:20.699Z,34.00
2022-10-30T07:24:52.870Z,38.00
2022-10-30T07:27:47.865Z,41.33
2022-10-30T07:30:29.778Z,36.00
2022-10-30T07:33:16.372Z,46.33
2022-10-30T07:35:55.539Z,38.00
2022-10-30T07:38:32.082Z,39.67
2022-10-30T07:41:11.111Z,32.00
2022-10-30T07:43:48.394Z,36.00
2022-10-30T07:46:34.878Z,38.00
2022-10-30T07:49:23.395Z,50.00
2022-10-30T07:51:55.914Z,40.00
2022-10-30T07:54:23.986Z,42.00
2022-10-30T07:56:52.271Z,36.50
2022-10-30T07:59:39.030Z,46.00
2022-10-30T08:02:21.757Z,50.00
2022-10-30T08:05:13.882Z,45.00
2022-10-30T08:08:10.777Z,51.50
2022-10-30T08:10:38.905Z,39.00
2022-10-30T08:13:08.912Z,38.00
2022-10-30T08:15:39.807Z,42.00
2022-10-30T08:18:07.776Z,33.50
2022-10-30T08:20:37.941Z,37.50
2022-10-30T08:23:05.975Z,35.00
2022-10-30T08:25:33.938Z,30.50
2022-10-30T08:28:03.245Z,39.00
2022-10-30T08:30:36.329Z,33.00
2022-10-30T08:33:06.259Z,42.00
2022-10-30T08:35:59.301Z,39.00
2022-10-30T08:38:28.316Z,34.00
2022-10-30T08:41:15.074Z,26.50
2022-10-30T08:43:46.316Z,28.00
2022-10-30T08:46:14.316Z,28.00
2022-10-30T08:48:42.390Z,24.50
2022-10-30T08:51:10.721Z,27.50
2022-10-30T08:53:43.543Z,31.50
2022-10-30T08:56:14.178Z,37.50
2022-10-30T08:59:05.087Z,32.00
2022-10-30T09:01:37.018Z,37.50
2022-10-30T09:04:28.296Z,30.50
2022-10-30T09:07:14.669Z,27.50
2022-10-30T09:10:05.504Z,27.00
2022-10-30T09:12:35.079Z,31.50
2022-10-30T09:15:04.177Z,32.50
2022-10-30T09:17:36.540Z,34.50
2022-10-30T09:20:04.966Z,39.00
2022-10-30T09:22:40.059Z,32.00
2022-10-30T09:25:08.553Z,27.00
2022-10-30T09:27:55.232Z,26.50
2022-10-30T09:30:24.455Z,35.00
2022-10-30T09:32:55.164Z,38.00
2022-10-30T09:35:28.174Z,38.00
2022-10-30T09:37:56.851Z,32.00
2022-10-30T09:40:31.108Z,43.50
2022-10-30T09:43:22.319Z,37.67
2022-10-30T09:46:08.893Z,40.50
2022-10-30T09:48:55.512Z,34.00
2022-10-30T09:51:44.462Z,28.00
2022-10-30T09:54:23.899Z,30.00
2022-10-30T09:57:01.244Z,33.00
2022-10-30T09:59:40.420Z,37.00
2022-10-30T10:02:12.592Z,27.50
2022-10-30T10:04:40.665Z,29.67
2022-10-30T10:07:14.389Z,29.50
2022-10-30T10:10:11.891Z,30.00
2022-10-30T10:13:03.699Z,33.00
2022-10-30T10:15:39.820Z,33.50
2022-10-30T10:18:14.750Z,40.00
2022-10-30T10:20:44.249Z,40.50
2022-10-30T10:23:17.334Z,38.50
2022-10-30T10:25:51.180Z,39.00
2022-10-30T10:28:19.115Z,41.67
2022-10-30T10:30:46.880Z,38.00
2022-10-30T10:33:14.740Z,36.00
2022-10-30T10:35:42.920Z,36.00
2022-10-30T10:38:29.745Z,39.50
2022-10-30T10:40:57.490Z,36.00
2022-10-30T10:43:44.100Z,34.50
2022-10-30T10:46:35.423Z,33.00
2022-10-30T10:49:21.919Z,36.00
2022-10-30T10:52:09.462Z,33.00
2022-10-30T10:54:37.311Z,31.00
2022-10-30T10:57:06.596Z,32.50
2022-10-30T10:59:34.383Z,37.50
2022-10-30T11:02:11.146Z,31.00
2022-10-30T11:04:43.539Z,45.33
2022-10-30T11:07:17.492Z,43.67
2022-10-30T11:09:46.640Z,34.00
2022-10-30T11:12:14.522Z,28.50
2022-10-30T11:14:42.674Z,41.50
2022-10-30T11:17:11.367Z,32.00
2022-10-30T11:19:39.433Z,30.33
2022-10-30T11:22:20.347Z,32.50
2022-10-30T11:24:48.069Z,32.00
2022-10-30T11:27:26.588Z,30.50
2022-10-30T11:29:57.753Z,28.00
2022-10-30T11:32:32.884Z,31.00
2022-10-30T11:35:12.602Z,29.50
2022-10-30T11:37:41.608Z,32.50
2022-10-30T11:40:12.067Z,33.00
2022-10-30T11:42:41.789Z,29.00
2022-10-30T11:45:29.068Z,30.00
2022-10-30T11:48:01.218Z,32.00
2022-10-30T11:50:31.770Z,32.50
2022-10-30T11:53:11.093Z,35.00
2022-10-30T11:55:46.542Z,30.00
2022-10-30T11:58:22.611Z,35.33
2022-10-30T12:00:59.991Z,36.00
2022-10-30T12:03:29.580Z,35.00
2022-10-30T12:06:12.416Z,29.00
2022-10-30T12:08:40.493Z,38.67
2022-10-30T12:11:08.367Z,32.50
2022-10-30T12:13:40.319Z,34.00
2022-10-30T12:16:08.298Z,30.50
2022-10-30T12:18:36.982Z,33.00
2022-10-30T12:21:05.155Z,31.50
2022-10-30T12:23:33.731Z,27.00
2022-10-30T12:26:07.884Z,28.00
2022-10-30T12:28:36.198Z,32.00
2022-10-30T12:31:09.117Z,27.00
2022-10-30T12:33:40.055Z,28.00
2022-10-30T12:36:14.082Z,26.00
2022-10-30T12:38:51.044Z,36.00
2022-10-30T12:41:24.865Z,28.50
2022-10-30T12:43:58.548Z,27.00
2022-10-30T12:46:26.524Z,24.00
2022-10-30T12:49:14.985Z,26.00
2022-10-30T12:51:49.182Z,23.00
2022-10-30T12:54:17.055Z,29.00
2022-10-30T12:56:47.790Z,25.00
2022-10-30T12:59:25.381Z,28.50
2022-10-30T13:01:59.158Z,22.50
2022-10-30T13:04:29.409Z,25.00
2022-10-30T13:07:03.413Z,26.00
2022-10-30T13:09:37.701Z,27.50
2022-10-30T13:12:25.987Z,25.00
2022-10-30T13:14:59.182Z,23.00
2022-10-30T13:17:28.815Z,26.00
2022-10-30T13:19:57.263Z,24.00
2022-10-30T13:22:35.267Z,22.00
2022-10-30T13:25:18.013Z,26.00
2022-10-30T13:27:50.766Z,27.00
2022-10-30T13:30:23.561Z,23.00
2022-10-30T13:32:54.636Z,26.00
2022-10-30T13:35:22.560Z,24.67
2022-10-30T13:37:59.412Z,20.00
2022-10-30T13:40:27.404Z,22.00
2022-10-30T13:43:01.320Z,27.00
2022-10-30T13:45:32.042Z,24.50
2022-10-30T13:48:18.760Z,25.50
2022-10-30T13:50:46.616Z,26.50
2022-10-30T13:53:24.658Z,25.00
2022-10-30T13:55:53.055Z,21.00
2022-10-30T13:58:24.770Z,28.00
2022-10-30T14:01:17.428Z,29.00
2022-10-30T14:04:05.457Z,29.50
2022-10-30T14:06:51.849Z,24.00
2022-10-30T14:09:19.724Z,27.00
2022-10-30T14:11:47.596Z,23.50
2022-10-30T14:14:41.455Z,21.00
2022-10-30T14:17:12.703Z,21.50
2022-10-30T14:19:59.368Z,21.00
2022-10-30T14:22:27.289Z,24.00
2022-10-30T14:24:55.248Z,20.00
2022-10-30T14:27:33.061Z,24.50
2022-10-30T14:30:01.231Z,21.00
2022-10-30T14:32:34.833Z,24.00
2022-10-30T14:35:03.387Z,22.00
2022-10-30T14:37:31.478Z,25.00
2022-10-30T14:40:19.351Z,20.00
2022-10-30T14:42:54.365Z,27.00
2022-10-30T14:45:54.688Z,20.00
2022-10-30T14:48:24.492Z,20.00
2022-10-30T14:51:05.782Z,25.00
2022-10-30T14:53:54.283Z,21.00
2022-10-30T14:56:34.284Z,26.00
2022-10-30T14:59:14.312Z,27.00
2022-10-30T15:01:50.247Z,24.50
2022-10-30T15:04:24.611Z,26.00
2022-10-30T15:07:04.362Z,26.00
2022-10-30T15:09:34.873Z,24.00
2022-10-30T15:12:26.186Z,24.00
2022-10-30T15:14:56.942Z,23.00
2022-10-30T15:17:38.425Z,26.00
2022-10-30T15:20:08.445Z,27.00
2022-10-30T15:22:36.614Z,25.00
2022-10-30T15:25:05.468Z,28.50
2022-10-30T15:27:35.845Z,31.00
2022-10-30T15:30:05.123Z,24.50
2022-10-30T15:32:33.089Z,26.00
2022-10-30T15:35:05.493Z,27.00
2022-10-30T15:37:33.484Z,32.50
2022-10-30T15:40:10.112Z,32.00
2022-10-30T15:42:39.481Z,27.00
2022-10-30T15:45:15.980Z,29.67
2022-10-30T15:47:48.471Z,26.00
2022-10-30T15:50:16.730Z,27.00
2022-10-30T15:52:44.495Z,29.00
2022-10-30T15:55:15.323Z,28.00
2022-10-30T15:58:08.389Z,32.00
2022-10-30T16:00:37.718Z,28.00
2022-10-30T16:03:11.935Z,32.50
2022-10-30T16:05:39.673Z,34.67
2022-10-30T16:08:21.151Z,34.00
2022-10-30T16:10:50.141Z,37.00
2022-10-30T16:13:19.548Z,34.00
2022-10-30T16:15:47.830Z,34.00
2022-10-30T16:18:19.135Z,40.33
2022-10-30T16:20:57.579Z,32.00
2022-10-30T16:23:25.682Z,28.50
2022-10-30T16:25:58.041Z,30.50
2022-10-30T16:28:30.322Z,34.00
2022-10-30T16:31:00.728Z,29.00
2022-10-30T16:33:29.941Z,33.50
2022-10-30T16:35:58.138Z,38.00
2022-10-30T16:38:28.331Z,28.00
2022-10-30T16:40:56.611Z,29.00
2022-10-30T16:43:31.593Z,28.00
2022-10-30T16:46:14.619Z,33.00
2022-10-30T16:48:45.000Z,30.50
2022-10-30T16:51:17.768Z,33.00
2022-10-30T16:53:50.550Z,36.00
2022-10-30T16:56:28.864Z,38.00
2022-10-30T16:58:59.244Z,30.00
2022-10-30T17:01:27.848Z,38.00
2022-10-30T17:03:56.557Z,34.50
2022-10-30T17:06:29.844Z,37.00
2022-10-30T17:08:59.784Z,33.00
2022-10-30T17:11:35.342Z,36.33
2022-10-30T17:14:06.995Z,40.00
2022-10-30T17:16:37.599Z,47.50
2022-10-30T17:19:24.105Z,46.00
2022-10-30T17:21:53.266Z,47.50
2022-10-30T17:24:35.296Z,52.00
2022-10-30T17:27:05.116Z,38.00
2022-10-30T17:29:43.354Z,44.50
2022-10-30T17:32:16.879Z,49.00
2022-10-30T17:34:44.683Z,48.00
2022-10-30T17:37:13.782Z,45.00
2022-10-30T17:39:41.729Z,45.00
2022-10-30T17:42:10.434Z,52.00
2022-10-30T17:44:38.815Z,50.00
2022-10-30T17:47:17.443Z,46.50
2022-10-30T17:49:46.129Z,46.00
2022-10-30T17:52:15.530Z,54.67
2022-10-30T17:54:44.323Z,46.50
2022-10-30T17:57:14.849Z,47.67
2022-10-30T17:59:43.227Z,39.00
2022-10-30T18:02:15.991Z,43.00
2022-10-30T18:04:44.632Z,50.00
2022-10-30T18:07:13.594Z,52.00
2022-10-30T18:09:41.874Z,48.33
2022-10-30T18:12:16.716Z,50.00
2022-10-30T18:14:45.816Z,47.00
2022-10-30T18:17:13.761Z,44.00
2022-10-30T18:19:41.839Z,52.33
2022-10-30T18:22:10.305Z,49.50
2022-10-30T18:24:38.484Z,38.00
2022-10-30T18:27:06.320Z,54.00
2022-10-30T18:29:34.562Z,45.00
2022-10-30T18:32:06.848Z,46.00
2022-10-30T18:34:37.329Z,51.00
2022-10-30T18:37:05.192Z,51.00
2022-10-30T18:39:33.097Z,50.50
2022-10-30T18:42:01.029Z,47.00
2022-10-30T18:44:29.000Z,51.50
2022-10-30T18:47:02.538Z,52.00
2022-10-30T18:49:33.621Z,49.00
2022-10-30T18:52:01.486Z,45.00
2022-10-30T18:54:29.470Z,46.50
2022-10-30T18:56:57.236Z,49.00
2022-10-30T18:59:25.204Z,42.50
2022-10-30T19:01:53.362Z,48.00
2022-10-30T19:04:22.637Z,43.00
2022-10-30T19:06:51.262Z,44.33
2022-10-30T19:09:19.029Z,36.00
2022-10-30T19:11:46.793Z,39.50
2022-10-30T19:14:16.166Z,41.33
2022-10-30T19:16:44.168Z,38.00
2022-10-30T19:19:15.292Z,43.50
2022-10-30T19:21:43.446Z,41.00
2022-10-30T19:24:15.286Z,42.00
2022-10-30T19:26:43.188Z,46.50
2022-10-30T19:29:10.988Z,51.00
2022-10-30T19:31:38.809Z,40.50
2022-10-30T19:34:06.551Z,53.00
2022-10-30T19:36:36.412Z,53.00
2022-10-30T19:39:10.188Z,52.00
2022-10-30T19:41:39.001Z,54.33
2022-10-30T19:44:07.009Z,53.00
2022-10-30T19:46:35.175Z,56.67
2022-10-30T19:49:19.235Z,53.00
2022-10-30T19:51:47.609Z,46.67
2022-10-30T19:54:15.692Z,57.33
2022-10-30T19:56:44.119Z,55.50
2022-10-30T19:59:13.176Z,67.33
2022-10-30T20:01:41.852Z,56.50
2022-10-30T20:04:10.171Z,57.33
2022-10-30T20:06:38.320Z,57.00
2022-10-30T20:09:06.102Z,55.33
2022-10-30T20:11:33.764Z,49.33
2022-10-30T20:14:01.568Z,44.00
2022-10-30T20:16:29.336Z,50.00
2022-10-30T20:18:57.113Z,48.50
2022-10-30T20:21:27.254Z,46.00
2022-10-30T20:27:10.962Z,49.00
2022-10-30T20:29:40.264Z,45.50
2022-10-30T20:32:09.127Z,44.50
2022-10-30T20:34:36.921Z,42.00
2022-10-30T20:37:04.787Z,45.00
2022-10-30T20:39:32.551Z,45.00
2022-10-30T20:42:00.624Z,43.67
2022-10-30T20:44:28.484Z,46.33
2022-10-30T20:46:56.184Z,53.50
2022-10-30T20:49:24.013Z,46.67
2022-10-30T20:51:51.877Z,52.00
2022-10-30T20:54:19.956Z,46.00
2022-10-30T20:56:47.819Z,63.00
2022-10-30T20:59:15.792Z,56.50
2022-10-30T21:01:43.904Z,54.00
2022-10-30T21:04:12.217Z,48.50
2022-10-30T21:06:40.411Z,51.00
2022-10-30T21:09:08.378Z,45.50
2022-10-30T21:11:36.130Z,53.00
2022-10-30T21:14:04.027Z,46.33
2022-10-30T21:16:31.801Z,49.00
2022-10-30T21:18:59.504Z,43.00
2022-10-30T21:21:27.280Z,44.00
2022-10-30T21:23:55.209Z,57.00
2022-10-30T21:26:24.892Z,54.50
2022-10-30T21:28:52.881Z,54.67
2022-10-30T21:31:21.241Z,47.50
2022-10-30T21:33:49.215Z,52.00
2022-10-30T21:36:20.056Z,49.00
2022-10-30T21:38:48.259Z,49.33
2022-10-30T21:41:17.714Z,56.00
2022-10-30T21:43:49.568Z,54.00
2022-10-30T21:46:17.757Z,59.67
2022-10-30T21:48:45.821Z,54.33
2022-10-30T21:51:16.152Z,54.00
2022-10-30T21:53:45.061Z,54.33
2022-10-30T21:56:14.855Z,58.67
2022-10-30T21:58:42.611Z,57.33
2022-10-30T22:01:17.929Z,53.67
2022-10-30T22:03:46.446Z,50.00
2022-10-30T22:06:14.982Z,52.00
2022-10-30T22:08:46.789Z,54.00
2022-10-30T22:11:16.389Z,52.67
2022-10-30T22:13:44.772Z,51.33
2022-10-30T22:16:13.770Z,50.33
2022-10-30T22:18:41.840Z,48.67
2022-10-30T22:21:10.753Z,51.00
2022-10-30T22:23:39.001Z,54.00
2022-10-30T22:26:08.315Z,45.00
2022-10-30T22:28:36.177Z,50.67
2022-10-30T22:31:08.115Z,52.00
2022-10-30T22:33:36.417Z,58.00
2022-10-30T22:36:08.844Z,60.00
2022-10-30T22:38:36.764Z,53.00
2022-10-30T22:41:11.884Z,57.00
2022-10-30T22:43:40.475Z,55.50
2022-10-30T22:46:08.745Z,55.33
2022-10-30T22:48:36.825Z,56.67
2022-10-30T22:51:05.911Z,44.33
2022-10-30T22:53:34.805Z,52.00
2022-10-30T22:56:12.941Z,45.67
2022-10-30T22:58:41.302Z,47.67
2022-10-30T23:01:10.743Z,62.00
2022-10-30T23:03:38.895Z,57.00
2022-10-30T23:06:07.457Z,54.50
2022-10-30T23:08:35.630Z,52.00
2022-10-30T23:11:04.313Z,53.33
2022-10-30T23:13:32.187Z,45.00
2022-10-30T23:16:01.729Z,60.67
2022-10-30T23:18:29.731Z,65.67
2022-10-30T23:21:02.027Z,50.00
2022-10-30T23:23:29.989Z,53.00
2022-10-30T23:26:01.921Z,56.00
2022-10-30T23:28:29.828Z,50.00
2022-10-30T23:30:57.591Z,62.00
2022-10-30T23:33:25.456Z,57.00
2022-10-30T23:35:58.140Z,51.67
2022-10-30T23:38:26.625Z,60.00
2022-10-30T23:40:54.482Z,55.00
2022-10-30T23:43:22.356Z,53.33
2022-10-30T23:45:50.115Z,40.00
2022-10-30T23:48:18.096Z,44.33
2022-10-30T23:50:46.058Z,51.00
2022-10-30T23:53:14.121Z,51.50
2022-10-30T23:55:49.363Z,42.00
